createdAt,value
2023-01-10T00:00:50.154Z,46.08
2023-01-10T00:01:50.094Z,45.28
2023-01-10T00:02:50.155Z,47.70
2023-01-10T00:03:50.086Z,41.57
2023-01-10T00:04:50.124Z,42.22
2023-01-10T00:05:50.075Z,39.16
2023-01-10T00:06:50.080Z,37.71
2023-01-10T00:07:50.099Z,39.96
2023-01-10T00:08:50.050Z,38.99
2023-01-10T00:09:50.031Z,35.77
2023-01-10T00:10:50.025Z,39.96
2023-01-10T00:11:50.018Z,42.86
2023-01-10T00:12:50.003Z,38.83
2023-01-10T00:13:49.986Z,45.28
2023-01-10T00:14:49.985Z,43.34
2023-01-10T00:15:50.028Z,37.38
2023-01-10T00:16:49.990Z,42.54
2023-01-10T00:17:49.952Z,44.79
2023-01-10T00:18:49.979Z,44.47
2023-01-10T00:19:49.948Z,41.89
2023-01-10T00:20:49.962Z,45.28
2023-01-10T00:21:49.916Z,46.89
2023-01-10T00:22:49.908Z,41.73
2023-01-10T00:23:49.896Z,40.44
2023-01-10T00:24:49.887Z,35.93
2023-01-10T00:25:49.891Z,37.71
2023-01-10T00:26:49.872Z,46.25
2023-01-10T00:27:49.866Z,39.96
2023-01-10T00:28:49.854Z,40.61
2023-01-10T00:29:49.840Z,46.57
2023-01-10T00:30:49.870Z,43.18
2023-01-10T00:31:49.828Z,40.93
2023-01-10T00:32:49.818Z,44.47
2023-01-10T00:33:49.812Z,44.79
2023-01-10T00:34:49.803Z,42.06
2023-01-10T00:35:49.802Z,38.83
2023-01-10T00:36:49.784Z,39.16
2023-01-10T00:37:49.774Z,42.54
2023-01-10T00:38:49.768Z,39.96
2023-01-10T00:39:49.758Z,37.87
2023-01-10T00:40:49.856Z,37.06
2023-01-10T00:41:49.739Z,42.38
2023-01-10T00:42:49.732Z,44.96
2023-01-10T00:43:49.724Z,44.63
2023-01-10T00:44:49.712Z,42.54
2023-01-10T00:45:49.795Z,39.80
2023-01-10T00:46:49.699Z,42.86
2023-01-10T00:47:49.688Z,43.02
2023-01-10T00:48:49.692Z,40.77
2023-01-10T00:49:49.675Z,44.96
2023-01-10T00:50:49.669Z,46.25
2023-01-10T00:51:49.654Z,40.77
2023-01-10T00:52:49.643Z,40.77
2023-01-10T00:53:49.643Z,43.83
2023-01-10T00:54:49.629Z,40.93
2023-01-10T00:55:49.631Z,40.93
2023-01-10T00:56:49.607Z,41.73
2023-01-10T00:57:49.601Z,42.22
2023-01-10T00:58:49.585Z,43.51
2023-01-10T00:59:49.583Z,46.89
2023-01-10T01:00:49.935Z,46.89
2023-01-10T01:01:49.699Z,46.25
2023-01-10T01:02:49.577Z,43.02
2023-01-10T01:03:49.547Z,46.41
2023-01-10T01:04:49.543Z,42.22
2023-01-10T01:05:49.546Z,35.45
2023-01-10T01:06:49.523Z,41.57
2023-01-10T01:07:49.513Z,42.38
2023-01-10T01:08:49.505Z,43.18
2023-01-10T01:09:49.512Z,42.22
2023-01-10T01:10:49.503Z,43.99
2023-01-10T01:11:49.500Z,42.70
2023-01-10T01:12:49.473Z,44.47
2023-01-10T01:13:49.463Z,42.06
2023-01-10T01:14:49.461Z,44.15
2023-01-10T01:15:49.564Z,43.18
2023-01-10T01:16:49.443Z,40.61
2023-01-10T01:17:49.465Z,41.25
2023-01-10T01:18:49.421Z,47.53
2023-01-10T01:19:49.417Z,43.67
2023-01-10T01:20:49.419Z,43.02
2023-01-10T01:21:49.398Z,41.73
2023-01-10T01:22:49.386Z,45.92
2023-01-10T01:23:49.375Z,46.08
2023-01-10T01:24:49.369Z,43.18
2023-01-10T01:25:49.359Z,40.44
2023-01-10T01:26:49.364Z,43.83
2023-01-10T01:27:49.341Z,39.16
2023-01-10T01:28:49.331Z,36.90
2023-01-10T01:29:49.332Z,38.83
2023-01-10T01:30:49.361Z,47.37
2023-01-10T01:31:49.317Z,52.05
2023-01-10T01:32:49.293Z,46.08
2023-01-10T01:33:49.295Z,40.28
2023-01-10T01:34:49.276Z,42.22
2023-01-10T01:35:49.285Z,42.38
2023-01-10T01:36:49.273Z,40.93
2023-01-10T01:37:49.260Z,47.53
2023-01-10T01:38:49.244Z,44.31
2023-01-10T01:39:49.239Z,38.67
2023-01-10T01:40:49.230Z,48.50
2023-01-10T01:41:49.241Z,41.09
2023-01-10T01:42:49.210Z,40.28
2023-01-10T01:43:49.198Z,36.42
2023-01-10T01:44:50.224Z,41.41
2023-01-10T01:45:49.191Z,40.12
2023-01-10T01:46:49.189Z,39.96
2023-01-10T01:47:49.172Z,45.76
2023-01-10T01:48:49.160Z,44.96
2023-01-10T01:49:49.153Z,43.83
2023-01-10T01:50:49.148Z,44.47
2023-01-10T01:51:49.172Z,43.18
2023-01-10T01:52:49.129Z,39.32
2023-01-10T01:53:49.117Z,41.25
2023-01-10T01:54:49.110Z,43.51
2023-01-10T01:55:49.095Z,43.99
2023-01-10T01:56:49.101Z,46.57
2023-01-10T01:57:49.089Z,46.41
2023-01-10T01:58:49.091Z,44.31
2023-01-10T01:59:49.059Z,47.86
2023-01-10T02:00:49.061Z,47.86
2023-01-10T02:01:49.070Z,46.73
2023-01-10T02:03:01.739Z,47.53
2023-01-10T02:03:51.111Z,45.28
2023-01-10T02:04:49.024Z,43.83
2023-01-10T02:05:49.007Z,46.89
2023-01-10T02:06:49.014Z,46.57
2023-01-10T02:07:48.987Z,45.92
2023-01-10T02:08:48.984Z,43.34
2023-01-10T02:09:48.976Z,46.08
2023-01-10T02:10:48.995Z,49.31
2023-01-10T02:11:48.965Z,42.54
2023-01-10T02:12:48.956Z,41.73
2023-01-10T02:13:48.952Z,43.18
2023-01-10T02:14:48.939Z,46.73
2023-01-10T02:15:48.942Z,41.41
2023-01-10T02:16:48.944Z,45.12
2023-01-10T02:17:48.906Z,44.15
2023-01-10T02:18:48.917Z,43.99
2023-01-10T02:19:48.888Z,41.89
2023-01-10T02:20:48.878Z,46.57
2023-01-10T02:21:48.905Z,41.41
2023-01-10T02:22:48.884Z,42.22
2023-01-10T02:23:48.856Z,43.18
2023-01-10T02:24:48.876Z,43.02
2023-01-10T02:25:48.881Z,36.74
2023-01-10T02:26:48.844Z,43.18
2023-01-10T02:27:48.829Z,39.80
2023-01-10T02:28:48.834Z,40.28
2023-01-10T02:29:48.797Z,44.63
2023-01-10T02:30:48.801Z,45.12
2023-01-10T02:31:48.794Z,41.89
2023-01-10T02:33:04.073Z,46.89
2023-01-10T02:33:50.770Z,40.77
2023-01-10T02:34:48.769Z,45.92
2023-01-10T02:35:48.752Z,40.93
2023-01-10T02:36:48.755Z,40.77
2023-01-10T02:37:48.729Z,43.51
2023-01-10T02:38:48.729Z,44.47
2023-01-10T02:39:48.720Z,43.51
2023-01-10T02:40:48.708Z,46.89
2023-01-10T02:41:48.711Z,44.79
2023-01-10T02:42:48.688Z,44.15
2023-01-10T02:43:48.688Z,43.67
2023-01-10T02:44:48.705Z,46.41
2023-01-10T02:45:48.668Z,43.51
2023-01-10T02:46:48.785Z,43.02
2023-01-10T02:47:48.653Z,47.37
2023-01-10T02:48:48.640Z,45.60
2023-01-10T02:49:48.632Z,47.21
2023-01-10T02:50:48.637Z,43.99
2023-01-10T02:51:48.630Z,39.16
2023-01-10T02:52:48.621Z,44.31
2023-01-10T02:53:48.605Z,47.05
2023-01-10T02:54:48.588Z,43.18
2023-01-10T02:55:48.577Z,45.44
2023-01-10T02:56:49.582Z,38.35
2023-01-10T02:57:48.564Z,41.25
2023-01-10T02:58:48.571Z,48.34
2023-01-10T02:59:48.553Z,43.18
2023-01-10T03:00:48.560Z,46.41
2023-01-10T03:01:48.571Z,44.63
2023-01-10T03:02:48.518Z,40.93
2023-01-10T03:03:48.514Z,45.92
2023-01-10T03:24:53.388Z,43.67
2023-01-10T03:25:53.380Z,44.31
2023-01-10T03:26:53.380Z,46.08
2023-01-10T03:27:53.371Z,45.92
2023-01-10T03:28:53.356Z,46.73
2023-01-10T03:29:53.338Z,44.96
2023-01-10T03:30:53.332Z,43.99
2023-01-10T03:31:53.335Z,40.44
2023-01-10T03:32:53.315Z,45.76
2023-01-10T03:33:53.309Z,45.44
2023-01-10T03:34:54.404Z,48.82
2023-01-10T03:35:54.401Z,43.83
2023-01-10T03:36:54.404Z,46.41
2023-01-10T03:37:54.395Z,44.63
2023-01-10T03:38:54.372Z,43.18
2023-01-10T03:39:54.367Z,42.70
2023-01-10T03:40:54.358Z,42.38
2023-01-10T03:41:54.362Z,44.96
2023-01-10T03:42:54.333Z,46.89
2023-01-10T03:43:54.329Z,40.28
2023-01-10T03:44:54.317Z,43.83
2023-01-10T03:45:54.313Z,42.54
2023-01-10T03:46:54.357Z,44.47
2023-01-10T03:47:54.293Z,45.28
2023-01-10T03:48:54.282Z,46.41
2023-01-10T03:49:54.273Z,46.41
2023-01-10T03:50:54.265Z,38.19
2023-01-10T03:51:54.266Z,46.57
2023-01-10T03:52:54.242Z,45.60
2023-01-10T03:53:54.236Z,46.08
2023-01-10T03:54:54.218Z,47.53
2023-01-10T03:55:54.227Z,47.86
2023-01-10T03:56:54.222Z,43.51
2023-01-10T03:57:54.245Z,44.63
2023-01-10T03:58:54.193Z,49.47
2023-01-10T03:59:54.212Z,47.86
2023-01-10T04:00:54.252Z,45.76
2023-01-10T04:01:54.239Z,42.38
2023-01-10T04:02:54.165Z,47.86
2023-01-10T04:03:54.163Z,48.02
2023-01-10T04:04:54.141Z,43.99
2023-01-10T04:05:54.130Z,48.34
2023-01-10T04:06:54.141Z,47.37
2023-01-10T04:07:54.115Z,49.79
2023-01-10T04:08:54.104Z,49.47
2023-01-10T04:09:54.098Z,47.86
2023-01-10T04:10:54.099Z,41.41
2023-01-10T04:11:54.081Z,42.38
2023-01-10T04:12:54.078Z,43.02
2023-01-10T04:13:54.069Z,44.47
2023-01-10T04:14:54.084Z,48.18
2023-01-10T04:15:54.058Z,48.02
2023-01-10T04:16:54.042Z,48.50
2023-01-10T04:17:54.038Z,47.86
2023-01-10T04:18:54.021Z,44.96
2023-01-10T04:19:54.012Z,44.79
2023-01-10T04:20:54.003Z,47.37
2023-01-10T04:21:54.004Z,46.89
2023-01-10T04:22:54.007Z,44.31
2023-01-10T04:23:53.974Z,46.73
2023-01-10T04:24:53.968Z,38.67
2023-01-10T04:25:53.959Z,39.64
2023-01-10T04:26:53.949Z,50.92
2023-01-10T04:27:53.972Z,49.95
2023-01-10T04:28:53.982Z,46.08
2023-01-10T04:29:53.922Z,48.98
2023-01-10T04:30:53.917Z,47.86
2023-01-10T04:31:53.958Z,47.86
2023-01-10T04:32:53.909Z,45.28
2023-01-10T04:33:53.894Z,47.86
2023-01-10T04:34:53.899Z,49.47
2023-01-10T04:35:53.867Z,44.63
2023-01-10T04:36:53.867Z,46.41
2023-01-10T04:37:53.881Z,46.73
2023-01-10T04:38:53.846Z,49.63
2023-01-10T04:39:53.831Z,48.66
2023-01-10T04:40:53.828Z,47.86
2023-01-10T04:41:53.822Z,51.08
2023-01-10T04:42:53.829Z,48.34
2023-01-10T04:43:53.798Z,45.92
2023-01-10T04:44:53.790Z,45.60
2023-01-10T04:45:53.835Z,46.57
2023-01-10T04:46:53.773Z,45.76
2023-01-10T04:47:53.778Z,50.76
2023-01-10T04:48:53.760Z,49.95
2023-01-10T04:49:53.760Z,47.86
2023-01-10T04:50:53.746Z,43.83
2023-01-10T04:51:53.737Z,45.44
2023-01-10T04:52:53.738Z,47.53
2023-01-10T04:53:53.713Z,47.70
2023-01-10T04:54:53.704Z,48.82
2023-01-10T04:56:25.603Z,44.96
2023-01-10T04:56:53.692Z,50.76
2023-01-10T04:57:53.699Z,50.27
2023-01-10T04:58:54.208Z,46.57
2023-01-10T04:59:54.660Z,51.56
2023-01-10T05:00:53.752Z,49.63
2023-01-10T05:01:53.812Z,45.92
2023-01-10T05:02:53.795Z,44.79
2023-01-10T05:03:54.637Z,49.95
2023-01-10T05:04:53.635Z,47.05
2023-01-10T05:05:53.611Z,44.15
2023-01-10T05:06:53.610Z,50.11
2023-01-10T05:07:53.627Z,48.18
2023-01-10T05:08:53.634Z,49.47
2023-01-10T05:09:53.601Z,49.47
2023-01-10T05:10:53.568Z,50.92
2023-01-10T05:11:53.564Z,50.11
2023-01-10T05:12:53.597Z,48.66
2023-01-10T05:13:53.567Z,51.56
2023-01-10T05:14:53.537Z,46.25
2023-01-10T05:15:53.521Z,45.92
2023-01-10T05:16:53.554Z,50.11
2023-01-10T05:17:53.530Z,47.37
2023-01-10T05:18:53.513Z,46.73
2023-01-10T05:19:53.495Z,47.05
2023-01-10T05:20:53.484Z,50.11
2023-01-10T05:21:53.483Z,51.24
2023-01-10T05:22:53.476Z,52.21
2023-01-10T05:23:53.465Z,48.66
2023-01-10T05:24:54.709Z,53.17
2023-01-10T05:25:54.441Z,50.60
2023-01-10T05:26:53.432Z,49.79
2023-01-10T05:27:53.436Z,48.98
2023-01-10T05:28:53.419Z,50.60
2023-01-10T05:29:53.408Z,52.37
2023-01-10T05:30:53.397Z,49.31
2023-01-10T05:31:53.452Z,50.76
2023-01-10T05:32:53.393Z,51.56
2023-01-10T05:33:53.373Z,53.33
2023-01-10T05:34:53.367Z,53.01
2023-01-10T05:35:53.357Z,50.27
2023-01-10T05:36:53.350Z,50.92
2023-01-10T05:37:53.352Z,47.86
2023-01-10T05:38:53.339Z,52.53
2023-01-10T05:39:53.329Z,51.56
2023-01-10T05:40:53.318Z,52.69
2023-01-10T05:41:53.315Z,51.40
2023-01-10T05:42:53.311Z,51.72
2023-01-10T05:43:53.320Z,47.86
2023-01-10T05:44:53.287Z,50.11
2023-01-10T05:45:53.287Z,52.05
2023-01-10T05:46:53.270Z,48.02
2023-01-10T05:47:53.287Z,48.82
2023-01-10T05:48:53.266Z,50.27
2023-01-10T05:49:53.241Z,51.08
2023-01-10T05:50:53.231Z,49.63
2023-01-10T05:51:53.225Z,54.30
2023-01-10T05:52:53.235Z,50.43
2023-01-10T05:53:53.201Z,49.63
2023-01-10T05:54:53.191Z,51.40
2023-01-10T05:55:53.188Z,51.08
2023-01-10T05:56:53.191Z,51.72
2023-01-10T05:57:53.167Z,50.27
2023-01-10T05:59:00.597Z,51.40
2023-01-10T05:59:55.149Z,50.76
2023-01-10T06:00:53.162Z,49.15
2023-01-10T06:01:53.153Z,50.76
2023-01-10T06:02:53.263Z,48.98
2023-01-10T06:03:53.142Z,50.11
2023-01-10T06:04:53.113Z,44.96
2023-01-10T06:05:53.120Z,46.73
2023-01-10T06:06:53.106Z,46.89
2023-01-10T06:07:53.085Z,46.41
2023-01-10T06:08:53.092Z,46.89
2023-01-10T06:09:53.062Z,43.51
2023-01-10T06:10:53.052Z,48.18
2023-01-10T06:11:53.046Z,47.86
2023-01-10T06:12:53.138Z,46.08
2023-01-10T06:13:53.049Z,48.66
2023-01-10T06:14:53.039Z,47.53
2023-01-10T06:15:53.022Z,48.34
2023-01-10T06:16:53.001Z,50.43
2023-01-10T06:17:53.012Z,48.18
2023-01-10T06:18:52.997Z,48.98
2023-01-10T06:19:52.978Z,47.21
2023-01-10T06:20:52.965Z,46.73
2023-01-10T06:21:52.961Z,48.82
2023-01-10T06:22:52.949Z,49.63
2023-01-10T06:23:52.951Z,49.63
2023-01-10T06:24:52.935Z,48.66
2023-01-10T06:25:52.933Z,48.18
2023-01-10T06:26:52.915Z,48.50
2023-01-10T06:27:52.906Z,49.79
2023-01-10T06:28:52.911Z,49.79
2023-01-10T06:29:52.886Z,49.15
2023-01-10T06:30:52.910Z,50.60
2023-01-10T06:31:52.868Z,46.57
2023-01-10T06:32:52.854Z,48.82
2023-01-10T06:33:52.866Z,50.27
2023-01-10T06:34:52.834Z,47.37
2023-01-10T06:35:52.830Z,46.57
2023-01-10T06:36:52.825Z,49.79
2023-01-10T06:37:52.839Z,47.37
2023-01-10T06:38:52.808Z,50.92
2023-01-10T06:39:52.801Z,50.92
2023-01-10T06:40:52.785Z,50.92
2023-01-10T06:41:52.782Z,50.60
2023-01-10T06:42:52.764Z,50.43
2023-01-10T06:43:52.768Z,49.31
2023-01-10T06:44:52.742Z,52.21
2023-01-10T06:45:52.787Z,48.02
2023-01-10T06:46:52.731Z,48.18
2023-01-10T06:47:52.716Z,48.66
2023-01-10T06:48:52.718Z,49.15
2023-01-10T06:49:52.701Z,50.11
2023-01-10T06:50:52.688Z,49.95
2023-01-10T06:51:52.682Z,47.37
2023-01-10T06:52:52.673Z,51.24
2023-01-10T06:53:52.674Z,47.53
2023-01-10T06:54:52.649Z,51.08
2023-01-10T06:55:52.649Z,47.53
2023-01-10T06:56:52.634Z,50.60
2023-01-10T06:57:52.632Z,49.15
2023-01-10T06:58:52.617Z,49.31
2023-01-10T06:59:53.610Z,48.02
2023-01-10T07:00:52.663Z,49.95
2023-01-10T07:01:52.662Z,48.34
2023-01-10T07:02:52.589Z,50.27
2023-01-10T07:03:52.753Z,48.98
2023-01-10T07:04:52.559Z,49.15
2023-01-10T07:05:52.546Z,49.63
2023-01-10T07:06:52.537Z,49.47
2023-01-10T07:07:52.535Z,50.27
2023-01-10T07:08:52.548Z,51.56
2023-01-10T07:09:52.522Z,48.82
2023-01-10T07:10:52.517Z,46.73
2023-01-10T07:11:52.496Z,47.21
2023-01-10T07:12:52.496Z,49.63
2023-01-10T07:13:52.489Z,51.24
2023-01-10T07:14:52.464Z,50.60
2023-01-10T07:15:52.484Z,48.18
2023-01-10T07:16:52.452Z,49.31
2023-01-10T07:17:52.440Z,47.05
2023-01-10T07:18:52.452Z,51.56
2023-01-10T07:19:52.428Z,46.08
2023-01-10T07:20:52.436Z,47.53
2023-01-10T07:21:52.403Z,49.95
2023-01-10T07:22:52.391Z,47.86
2023-01-10T07:23:52.395Z,48.82
2023-01-10T07:24:52.370Z,47.05
2023-01-10T07:25:52.360Z,47.05
2023-01-10T07:26:52.356Z,50.27
2023-01-10T07:27:52.373Z,48.82
2023-01-10T07:28:52.367Z,48.82
2023-01-10T07:29:52.329Z,48.34
2023-01-10T07:30:52.329Z,47.05
2023-01-10T07:31:52.320Z,45.12
2023-01-10T07:32:52.301Z,48.34
2023-01-10T07:33:52.341Z,49.15
2023-01-10T07:34:52.285Z,48.82
2023-01-10T07:35:52.282Z,48.98
2023-01-10T07:36:52.283Z,47.53
2023-01-10T07:37:52.263Z,46.73
2023-01-10T07:38:52.270Z,45.44
2023-01-10T07:39:52.259Z,49.79
2023-01-10T07:40:52.228Z,48.18
2023-01-10T07:41:52.224Z,49.31
2023-01-10T07:42:52.201Z,49.95
2023-01-10T07:43:53.215Z,49.31
2023-01-10T07:44:52.194Z,47.86
2023-01-10T07:45:52.219Z,46.89
2023-01-10T07:46:52.187Z,50.27
2023-01-10T07:47:52.167Z,48.66
2023-01-10T07:48:52.175Z,47.53
2023-01-10T07:49:52.147Z,46.25
2023-01-10T07:50:52.133Z,48.82
2023-01-10T07:51:52.136Z,43.51
2023-01-10T07:52:52.129Z,43.83
2023-01-10T07:53:52.123Z,47.05
2023-01-10T07:54:52.107Z,49.63
2023-01-10T07:55:52.095Z,48.02
2023-01-10T07:56:52.084Z,47.86
2023-01-10T07:57:52.078Z,46.73
2023-01-10T07:58:52.069Z,47.53
2023-01-10T07:59:52.057Z,47.21
2023-01-10T08:00:52.148Z,47.37
2023-01-10T08:01:52.042Z,47.86
2023-01-10T08:02:52.087Z,45.76
2023-01-10T08:03:52.088Z,46.89
2023-01-10T08:04:52.007Z,44.31
2023-01-10T08:05:51.998Z,47.70
2023-01-10T08:06:52.016Z,45.60
2023-01-10T08:07:51.980Z,46.89
2023-01-10T08:08:51.983Z,39.80
2023-01-10T08:09:51.963Z,44.79
2023-01-10T08:10:51.954Z,48.98
2023-01-10T08:11:51.939Z,49.31
2023-01-10T08:12:51.931Z,48.18
2023-01-10T08:13:51.936Z,45.76
2023-01-10T08:14:51.929Z,45.60
2023-01-10T08:15:52.085Z,44.31
2023-01-10T08:16:51.898Z,48.34
2023-01-10T08:17:51.878Z,48.34
2023-01-10T08:18:51.886Z,46.89
2023-01-10T08:19:51.874Z,47.21
2023-01-10T08:20:51.852Z,49.15
2023-01-10T08:21:51.849Z,45.28
2023-01-10T08:22:51.841Z,46.73
2023-01-10T08:23:51.836Z,48.98
2023-01-10T08:24:51.831Z,48.18
2023-01-10T08:25:51.829Z,47.37
2023-01-10T08:26:51.799Z,49.63
2023-01-10T08:27:51.781Z,47.53
2023-01-10T08:28:51.787Z,46.89
2023-01-10T08:29:51.795Z,48.34
2023-01-10T08:30:51.775Z,44.63
2023-01-10T08:31:51.744Z,47.21
2023-01-10T08:32:51.744Z,47.53
2023-01-10T08:33:51.741Z,48.02
2023-01-10T08:34:51.725Z,44.79
2023-01-10T08:35:51.719Z,45.12
2023-01-10T08:36:51.708Z,45.28
2023-01-10T08:37:51.741Z,46.25
2023-01-10T08:38:51.714Z,43.51
2023-01-10T08:39:51.672Z,47.37
2023-01-10T08:40:51.684Z,48.66
2023-01-10T08:41:51.652Z,48.02
2023-01-10T08:42:51.649Z,44.31
2023-01-10T08:43:51.653Z,42.06
2023-01-10T08:44:51.636Z,47.86
2023-01-10T08:45:51.625Z,48.82
2023-01-10T08:46:51.677Z,49.31
2023-01-10T08:47:51.603Z,46.57
2023-01-10T08:48:51.612Z,46.89
2023-01-10T08:49:51.599Z,48.34
2023-01-10T08:50:51.590Z,45.60
2023-01-10T08:51:51.575Z,44.63
2023-01-10T08:52:51.562Z,43.67
2023-01-10T08:53:51.574Z,44.79
2023-01-10T08:54:51.560Z,46.57
2023-01-10T08:55:51.538Z,44.31
2023-01-10T08:56:51.524Z,44.96
2023-01-10T08:57:51.526Z,44.63
2023-01-10T08:58:51.519Z,45.28
2023-01-10T08:59:51.490Z,47.53
2023-01-10T09:00:51.534Z,47.53
2023-01-10T09:01:51.567Z,46.89
2023-01-10T09:02:51.498Z,46.25
2023-01-10T09:03:51.459Z,46.57
2023-01-10T09:04:51.470Z,49.31
2023-01-10T09:05:51.439Z,48.34
2023-01-10T09:06:51.442Z,46.08
2023-01-10T09:07:51.424Z,44.79
2023-01-10T09:08:51.409Z,49.63
2023-01-10T09:09:51.411Z,44.79
2023-01-10T09:10:51.386Z,45.76
2023-01-10T09:11:51.379Z,47.05
2023-01-10T09:12:51.393Z,45.12
2023-01-10T09:13:51.357Z,44.96
2023-01-10T09:14:51.373Z,43.67
2023-01-10T09:15:51.377Z,45.76
2023-01-10T09:16:51.328Z,45.60
2023-01-10T09:17:51.323Z,47.37
2023-01-10T09:18:51.306Z,46.08
2023-01-10T09:19:51.309Z,45.44
2023-01-10T09:20:51.297Z,44.79
2023-01-10T09:21:51.292Z,46.57
2023-01-10T09:22:51.285Z,45.28
2023-01-10T09:23:51.257Z,44.96
2023-01-10T09:24:51.264Z,45.28
2023-01-10T09:25:51.249Z,46.57
2023-01-10T09:26:51.237Z,44.79
2023-01-10T09:27:51.225Z,46.89
2023-01-10T09:28:51.263Z,46.41
2023-01-10T09:29:51.225Z,46.73
2023-01-10T09:30:51.196Z,45.12
2023-01-10T09:31:51.211Z,42.06
2023-01-10T09:32:51.186Z,46.89
2023-01-10T09:33:51.169Z,43.83
2023-01-10T09:34:51.178Z,45.44
2023-01-10T09:35:51.155Z,42.22
2023-01-10T09:36:52.147Z,45.12
2023-01-10T09:37:51.128Z,46.57
2023-01-10T09:38:51.121Z,47.05
2023-01-10T09:39:51.133Z,45.28
2023-01-10T09:40:51.124Z,46.25
2023-01-10T09:41:51.097Z,45.60
2023-01-10T09:42:51.092Z,45.28
2023-01-10T09:43:51.079Z,43.51
2023-01-10T09:44:51.082Z,44.15
2023-01-10T09:45:51.096Z,47.21
2023-01-10T09:46:51.063Z,40.93
2023-01-10T09:47:51.057Z,46.41
2023-01-10T09:48:51.030Z,44.47
2023-01-10T09:49:51.040Z,44.79
2023-01-10T09:50:51.005Z,43.99
2023-01-10T09:51:51.009Z,45.76
2023-01-10T09:52:51.021Z,43.99
2023-01-10T09:53:53.602Z,42.22
2023-01-10T09:54:51.991Z,45.12
2023-01-10T09:55:50.953Z,44.96
2023-01-10T09:56:50.966Z,43.18
2023-01-10T09:57:50.967Z,42.70
2023-01-10T09:58:50.954Z,41.57
2023-01-10T09:59:51.008Z,39.48
2023-01-10T10:00:50.972Z,47.86
2023-01-10T10:01:50.893Z,45.60
2023-01-10T10:02:50.900Z,45.76
2023-01-10T10:03:51.037Z,43.67
2023-01-10T10:04:50.875Z,45.28
2023-01-10T10:05:54.109Z,43.99
2023-01-10T10:06:51.852Z,44.79
2023-01-10T10:07:50.844Z,44.79
2023-01-10T10:08:50.826Z,45.28
2023-01-10T10:09:50.821Z,44.47
2023-01-10T10:10:50.799Z,43.99
2023-01-10T10:11:50.787Z,44.96
2023-01-10T10:12:50.777Z,42.70
2023-01-10T10:13:50.768Z,45.44
2023-01-10T10:14:50.768Z,47.21
2023-01-10T10:15:50.800Z,43.99
2023-01-10T10:16:50.737Z,42.54
2023-01-10T10:17:50.726Z,42.70
2023-01-10T10:18:50.717Z,43.34
2023-01-10T10:19:50.715Z,41.57
2023-01-10T10:20:50.692Z,45.92
2023-01-10T10:21:50.684Z,45.92
2023-01-10T10:22:50.702Z,42.22
2023-01-10T10:23:50.682Z,44.15
2023-01-10T10:24:50.665Z,47.05
2023-01-10T10:25:50.645Z,42.70
2023-01-10T10:26:50.634Z,45.28
2023-01-10T10:27:50.625Z,40.93
2023-01-10T10:28:55.093Z,46.41
2023-01-10T10:29:51.621Z,46.25
2023-01-10T10:30:50.599Z,43.99
2023-01-10T10:31:50.657Z,43.99
2023-01-10T10:32:50.587Z,44.31
2023-01-10T10:33:50.564Z,47.05
2023-01-10T10:34:50.563Z,45.60
2023-01-10T10:35:50.543Z,46.89
2023-01-10T10:36:50.528Z,42.22
2023-01-10T10:37:50.527Z,44.15
2023-01-10T10:38:50.510Z,45.44
2023-01-10T10:39:50.537Z,44.63
2023-01-10T10:40:50.542Z,42.22
2023-01-10T10:41:50.489Z,43.02
2023-01-10T10:42:50.475Z,45.12
2023-01-10T10:43:50.460Z,44.63
2023-01-10T10:44:50.467Z,44.15
2023-01-10T10:45:50.463Z,41.09
2023-01-10T10:46:50.434Z,44.31
2023-01-10T10:47:50.427Z,44.63
2023-01-10T10:48:50.418Z,43.83
2023-01-10T10:49:50.419Z,46.25
2023-01-10T10:50:50.394Z,43.83
2023-01-10T10:51:50.392Z,44.79
2023-01-10T10:52:50.378Z,39.48
2023-01-10T10:53:50.373Z,46.08
2023-01-10T10:54:50.372Z,44.47
2023-01-10T10:55:50.374Z,47.70
2023-01-10T10:56:50.344Z,45.44
2023-01-10T10:57:59.967Z,42.38
2023-01-10T10:58:52.324Z,43.51
2023-01-10T10:59:50.331Z,46.89
2023-01-10T11:00:50.348Z,46.25
2023-01-10T11:01:50.419Z,45.28
2023-01-10T11:02:50.297Z,48.66
2023-01-10T11:03:50.270Z,45.28
2023-01-10T11:04:50.323Z,44.79
2023-01-10T11:05:50.258Z,44.79
2023-01-10T11:06:50.243Z,45.28
2023-01-10T11:07:50.235Z,46.57
2023-01-10T11:08:50.230Z,46.89
2023-01-10T11:09:50.239Z,45.44
2023-01-10T11:10:50.219Z,42.22
2023-01-10T11:11:50.213Z,44.31
2023-01-10T11:12:50.191Z,43.34
2023-01-10T11:13:50.189Z,45.60
2023-01-10T11:14:50.209Z,44.63
2023-01-10T11:15:50.164Z,45.28
2023-01-10T11:16:50.188Z,45.28
2023-01-10T11:17:50.139Z,45.44
2023-01-10T11:18:50.130Z,44.31
2023-01-10T11:19:50.128Z,44.31
2023-01-10T11:20:50.114Z,44.31
2023-01-10T11:21:50.110Z,46.08
2023-01-10T11:22:50.102Z,44.96
2023-01-10T11:23:50.103Z,45.28
2023-01-10T11:24:50.093Z,44.15
2023-01-10T11:25:50.072Z,43.51
2023-01-10T11:26:50.061Z,44.79
2023-01-10T11:27:50.047Z,43.51
2023-01-10T11:28:50.037Z,45.44
2023-01-10T11:29:50.036Z,43.99
2023-01-10T11:30:50.011Z,44.15
2023-01-10T11:31:50.146Z,45.28
2023-01-10T11:32:50.999Z,44.79
2023-01-10T11:33:49.983Z,46.57
2023-01-10T11:34:49.990Z,48.50
2023-01-10T11:35:49.979Z,48.34
2023-01-10T11:36:49.966Z,46.89
2023-01-10T11:37:49.972Z,44.31
2023-01-10T11:38:49.954Z,43.34
2023-01-10T11:39:49.958Z,46.08
2023-01-10T11:40:49.931Z,46.25
2023-01-10T11:41:49.929Z,42.38
2023-01-10T11:42:49.916Z,45.92
2023-01-10T11:43:49.937Z,43.02
2023-01-10T11:44:49.886Z,44.47
2023-01-10T11:45:49.932Z,44.15
2023-01-10T11:46:49.861Z,44.47
2023-01-10T11:47:49.856Z,44.47
2023-01-10T11:49:05.751Z,44.79
2023-01-10T11:49:51.869Z,47.53
2023-01-10T11:50:49.836Z,40.12
2023-01-10T11:51:49.823Z,43.99
2023-01-10T11:52:49.808Z,48.34
2023-01-10T11:53:49.798Z,46.25
2023-01-10T11:54:49.786Z,43.34
2023-01-10T11:55:49.796Z,41.73
2023-01-10T11:56:49.767Z,46.41
2023-01-10T11:57:49.770Z,46.25
2023-01-10T11:58:49.762Z,47.05
2023-01-10T11:59:49.754Z,44.96
2023-01-10T12:00:49.734Z,43.18
2023-01-10T12:01:49.714Z,45.12
2023-01-10T12:02:49.704Z,47.05
2023-01-10T12:03:49.695Z,44.31
2023-01-10T12:04:49.708Z,46.41
2023-01-10T12:05:49.687Z,45.60
2023-01-10T12:06:49.664Z,46.57
2023-01-10T12:07:49.658Z,45.76
2023-01-10T12:08:49.680Z,44.79
2023-01-10T12:09:49.665Z,47.86
2023-01-10T12:10:49.636Z,45.60
2023-01-10T12:11:49.622Z,47.05
2023-01-10T12:12:49.599Z,46.89
2023-01-10T12:13:49.598Z,42.86
2023-01-10T12:14:49.585Z,43.51
2023-01-10T12:15:49.588Z,44.47
2023-01-10T12:16:49.655Z,45.76
2023-01-10T12:17:49.569Z,46.08
2023-01-10T12:18:49.548Z,46.73
2023-01-10T12:19:49.545Z,46.25
2023-01-10T12:20:49.535Z,47.53
2023-01-10T12:21:49.524Z,45.76
2023-01-10T12:22:49.528Z,41.89
2023-01-10T12:23:49.502Z,45.76
2023-01-10T12:24:49.500Z,48.34
2023-01-10T12:25:51.494Z,44.31
2023-01-10T12:26:49.478Z,45.28
2023-01-10T12:27:49.484Z,45.28
2023-01-10T12:28:49.468Z,45.60
2023-01-10T12:29:49.447Z,44.31
2023-01-10T12:30:49.508Z,46.08
2023-01-10T12:31:49.436Z,42.86
2023-01-10T12:32:49.440Z,45.92
2023-01-10T12:33:49.407Z,43.99
2023-01-10T12:34:49.401Z,45.12
2023-01-10T12:35:49.407Z,44.79
2023-01-10T12:36:49.399Z,44.47
2023-01-10T12:37:49.384Z,46.25
2023-01-10T12:38:49.358Z,44.63
2023-01-10T12:39:49.357Z,44.15
2023-01-10T12:40:49.344Z,43.02
2023-01-10T12:41:49.343Z,44.96
2023-01-10T12:42:49.343Z,47.53
2023-01-10T12:43:49.313Z,45.44
2023-01-10T12:44:49.303Z,45.28
2023-01-10T12:45:49.311Z,44.47
2023-01-10T12:47:05.660Z,44.47
2023-01-10T12:47:51.291Z,45.28
2023-01-10T12:48:49.264Z,47.86
2023-01-10T12:49:49.255Z,46.25
2023-01-10T12:50:49.248Z,48.50
2023-01-10T12:51:49.239Z,46.57
2023-01-10T12:52:49.252Z,46.89
2023-01-10T12:53:49.222Z,45.12
2023-01-10T12:54:49.213Z,48.02
2023-01-10T12:55:49.200Z,44.96
2023-01-10T12:56:49.221Z,44.63
2023-01-10T12:57:51.711Z,46.89
2023-01-10T12:58:50.182Z,47.53
2023-01-10T12:59:49.164Z,46.25
2023-01-10T13:00:49.165Z,43.34
2023-01-10T13:01:49.283Z,43.51
2023-01-10T13:02:49.227Z,45.12
2023-01-10T13:03:49.132Z,46.41
2023-01-10T13:04:49.110Z,44.31
2023-01-10T13:05:50.165Z,43.02
2023-01-10T13:06:49.114Z,45.28
2023-01-10T13:07:49.107Z,46.57
2023-01-10T13:08:49.112Z,46.08
2023-01-10T13:09:49.104Z,45.28
2023-01-10T13:10:49.071Z,47.86
2023-01-10T13:11:49.054Z,45.76
2023-01-10T13:12:49.076Z,46.89